createdAt,value
2018-07-02T00:00:02.406Z,51.70
2018-07-02T00:02:29.714Z,51.50
2018-07-02T00:04:57.043Z,51.40
2018-07-02T00:07:24.359Z,51.50
2018-07-02T00:09:51.732Z,51.60
2018-07-02T00:12:19.047Z,51.80
2018-07-02T00:14:50.179Z,51.80
2018-07-02T00:17:17.523Z,52.20
2018-07-02T00:19:44.846Z,52.30
2018-07-02T00:22:12.159Z,52.40
2018-07-02T00:24:39.600Z,52.70
2018-07-02T00:27:06.894Z,52.60
2018-07-02T00:29:34.286Z,52.80
2018-07-02T00:32:01.641Z,53.00
2018-07-02T00:34:28.978Z,52.80
2018-07-02T00:36:56.333Z,53.30
2018-07-02T00:39:23.633Z,53.20
2018-07-02T00:41:50.947Z,53.20
2018-07-02T00:44:18.277Z,53.30
2018-07-02T00:46:46.432Z,53.20
2018-07-02T00:49:13.740Z,53.30
2018-07-02T00:51:41.590Z,53.20
2018-07-02T00:54:08.917Z,53.40
2018-07-02T00:56:36.210Z,53.40
2018-07-02T00:59:03.534Z,53.40
2018-07-02T01:01:31.174Z,53.30
2018-07-02T01:03:58.502Z,53.30
2018-07-02T01:06:25.808Z,53.10
2018-07-02T01:08:53.374Z,53.10
2018-07-02T01:11:20.673Z,53.30
2018-07-02T01:13:47.990Z,53.40
2018-07-02T01:16:15.294Z,53.70
2018-07-02T01:18:43.102Z,53.80
2018-07-02T01:21:10.419Z,53.70
2018-07-02T01:23:37.726Z,53.80
2018-07-02T01:26:05.023Z,53.90
2018-07-02T01:28:32.325Z,54.10
2018-07-02T01:30:59.625Z,54.10
2018-07-02T01:33:26.961Z,54.10
2018-07-02T01:35:54.270Z,54.10
2018-07-02T01:38:21.587Z,53.80
2018-07-02T01:40:48.940Z,54.20
2018-07-02T01:43:16.233Z,54.00
2018-07-02T01:45:43.605Z,53.90
2018-07-02T01:48:10.900Z,53.90
2018-07-02T01:50:40.105Z,54.00
2018-07-02T01:53:07.440Z,54.20
2018-07-02T01:55:34.757Z,54.00
2018-07-02T01:58:11.097Z,54.20
2018-07-02T02:00:38.431Z,54.60
2018-07-02T02:03:05.777Z,54.50
2018-07-02T02:05:33.061Z,54.50
2018-07-02T02:10:27.621Z,54.70
2018-07-02T02:12:54.936Z,54.90
2018-07-02T02:18:01.788Z,54.70
2018-07-02T02:20:29.139Z,54.70
2018-07-02T02:22:56.516Z,55.00
2018-07-02T02:25:23.790Z,55.10
2018-07-02T02:27:51.109Z,55.00
2018-07-02T02:30:18.456Z,54.70
2018-07-02T02:32:45.779Z,54.60
2018-07-02T02:35:13.073Z,54.90
2018-07-02T02:37:40.414Z,54.80
2018-07-02T02:40:08.694Z,54.80
2018-07-02T02:42:36.022Z,54.90
2018-07-02T02:45:04.932Z,55.00
2018-07-02T02:47:39.981Z,55.10
2018-07-02T02:50:07.330Z,55.40
2018-07-02T02:52:34.649Z,55.60
2018-07-02T02:55:01.973Z,55.60
2018-07-02T02:57:29.294Z,55.80
2018-07-02T02:59:56.871Z,55.90
2018-07-02T03:02:24.174Z,56.10
2018-07-02T03:04:51.488Z,56.10
2018-07-02T03:07:18.785Z,56.20
2018-07-02T03:09:51.324Z,56.30
2018-07-02T03:12:18.837Z,56.30
2018-07-02T03:17:38.722Z,56.30
2018-07-02T03:20:06.049Z,56.30
2018-07-02T03:22:33.391Z,56.70
2018-07-02T03:25:00.705Z,56.70
2018-07-02T03:27:28.009Z,56.60
2018-07-02T03:29:55.321Z,56.80
2018-07-02T03:32:22.629Z,56.30
2018-07-02T03:34:49.963Z,56.10
2018-07-02T03:37:17.268Z,56.00
2018-07-02T03:39:52.607Z,55.90
2018-07-02T03:42:19.919Z,55.90
2018-07-02T03:44:47.279Z,55.90
2018-07-02T03:47:14.622Z,56.10
2018-07-02T03:49:41.953Z,56.30
2018-07-02T03:52:09.306Z,56.80
2018-07-02T03:54:36.605Z,56.70
2018-07-02T03:57:03.985Z,56.40
2018-07-02T03:59:31.309Z,56.20
2018-07-02T04:01:58.638Z,56.30
2018-07-02T04:04:25.932Z,56.40
2018-07-02T04:06:53.346Z,56.20
2018-07-02T04:09:20.642Z,56.20
2018-07-02T04:11:47.949Z,56.10
2018-07-02T04:14:15.896Z,56.30
2018-07-02T04:16:43.198Z,56.00
2018-07-02T04:19:10.552Z,56.20
2018-07-02T04:21:38.330Z,56.20
2018-07-02T04:24:05.743Z,56.40
2018-07-02T04:26:33.055Z,56.40
2018-07-02T04:29:00.383Z,56.40
2018-07-02T04:31:27.691Z,56.20
2018-07-02T04:33:55.051Z,56.50
2018-07-02T04:36:22.355Z,56.00
2018-07-02T04:38:49.652Z,56.50
2018-07-02T04:41:16.991Z,56.70
2018-07-02T04:43:44.312Z,56.30
2018-07-02T04:46:11.663Z,56.50
2018-07-02T04:48:39.023Z,56.60
2018-07-02T04:51:06.419Z,56.60
2018-07-02T04:53:33.731Z,56.80
2018-07-02T04:56:01.124Z,56.70
2018-07-02T04:58:28.418Z,56.90
2018-07-02T05:00:55.782Z,56.50
2018-07-02T05:03:23.103Z,56.40
2018-07-02T05:05:50.424Z,56.70
2018-07-02T05:10:45.886Z,56.20
2018-07-02T05:13:13.249Z,56.10
2018-07-02T05:15:41.028Z,56.20
2018-07-02T05:18:08.404Z,56.30
2018-07-02T05:20:35.706Z,56.10
2018-07-02T05:23:03.031Z,56.00
2018-07-02T05:25:30.374Z,55.70
2018-07-02T05:27:57.712Z,55.40
2018-07-02T05:30:25.121Z,55.30
2018-07-02T05:32:52.403Z,55.20
2018-07-02T05:35:19.727Z,55.20
2018-07-02T05:37:47.043Z,55.50
2018-07-02T05:40:14.376Z,55.20
2018-07-02T05:42:41.735Z,54.80
2018-07-02T05:45:09.057Z,54.30
2018-07-02T05:47:36.378Z,54.30
2018-07-02T05:50:03.707Z,54.00
2018-07-02T05:52:31.099Z,54.50
2018-07-02T05:54:58.473Z,54.30
2018-07-02T05:57:25.777Z,54.30
2018-07-02T05:59:53.073Z,54.40
2018-07-02T06:02:20.437Z,54.10
2018-07-02T06:04:47.795Z,54.30
2018-07-02T06:07:15.181Z,54.30
2018-07-02T06:09:42.537Z,53.90
2018-07-02T06:12:09.885Z,54.30
2018-07-02T06:14:37.205Z,54.00
2018-07-02T06:17:04.562Z,54.60
2018-07-02T06:19:31.910Z,54.30
2018-07-02T06:21:59.240Z,54.10
2018-07-02T06:24:26.569Z,54.00
2018-07-02T06:26:53.887Z,54.30
2018-07-02T06:29:21.195Z,54.00
2018-07-02T06:31:48.529Z,54.10
2018-07-02T06:34:15.884Z,53.60
2018-07-02T06:36:43.245Z,53.70
2018-07-02T06:39:10.841Z,53.70
2018-07-02T06:41:38.152Z,53.30
2018-07-02T06:44:05.471Z,53.50
2018-07-02T06:46:32.862Z,53.30
2018-07-02T06:49:00.163Z,53.00
2018-07-02T06:51:27.457Z,53.50
2018-07-02T06:53:54.798Z,53.50
2018-07-02T06:56:22.243Z,53.30
2018-07-02T06:58:49.547Z,53.00
2018-07-02T07:01:16.911Z,53.80
2018-07-02T07:03:44.247Z,53.20
2018-07-02T07:06:11.583Z,53.30
2018-07-02T07:08:38.971Z,53.60
2018-07-02T07:11:06.344Z,53.70
2018-07-02T07:13:33.682Z,53.20
2018-07-02T07:18:28.232Z,52.90
2018-07-02T07:20:55.543Z,53.20
2018-07-02T07:23:22.881Z,52.70
2018-07-02T07:25:50.267Z,53.20
2018-07-02T07:28:17.483Z,53.40
2018-07-02T07:30:44.847Z,53.10
2018-07-02T07:33:12.147Z,52.60
2018-07-02T07:35:39.509Z,52.80
2018-07-02T07:38:06.841Z,52.80
2018-07-02T07:40:34.192Z,52.90
2018-07-02T07:43:01.658Z,52.60
2018-07-02T07:45:28.982Z,53.00
2018-07-02T07:47:56.390Z,52.30
2018-07-02T07:50:23.787Z,52.80
2018-07-02T07:52:51.077Z,52.70
2018-07-02T07:55:18.508Z,52.10
2018-07-02T07:57:45.939Z,52.10
2018-07-02T08:00:13.379Z,52.30
2018-07-02T08:02:40.799Z,52.30
2018-07-02T08:05:08.244Z,52.20
2018-07-02T08:07:35.605Z,51.70
2018-07-02T08:10:02.978Z,52.10
2018-07-02T08:12:30.498Z,52.10
2018-07-02T08:14:57.779Z,51.50
2018-07-02T08:17:25.084Z,52.20
2018-07-02T08:19:52.395Z,51.30
2018-07-02T08:22:19.725Z,50.50
2018-07-02T08:24:47.045Z,50.70
2018-07-02T08:27:14.393Z,50.60
2018-07-02T08:29:41.751Z,50.40
2018-07-02T08:32:09.311Z,50.20
2018-07-02T08:34:36.634Z,50.10
2018-07-02T08:37:03.958Z,49.80
2018-07-02T08:39:31.314Z,49.30
2018-07-02T08:41:58.634Z,49.80
2018-07-02T08:44:26.164Z,50.10
2018-07-02T08:46:53.469Z,49.40
2018-07-02T08:49:20.784Z,49.80
2018-07-02T08:51:48.111Z,50.10
2018-07-02T08:54:15.458Z,49.10
2018-07-02T08:56:42.816Z,49.70
2018-07-02T08:59:10.284Z,49.40
2018-07-02T09:01:37.600Z,49.20
2018-07-02T09:04:05.124Z,48.80
2018-07-02T09:06:32.426Z,48.60
2018-07-02T09:08:59.766Z,48.10
2018-07-02T09:11:27.177Z,48.40
2018-07-02T09:13:54.454Z,48.10
2018-07-02T09:16:21.806Z,48.20
2018-07-02T09:18:49.147Z,48.90
2018-07-02T09:21:16.500Z,47.50
2018-07-02T09:23:43.880Z,47.40
2018-07-02T09:26:11.175Z,47.50
2018-07-02T09:28:38.714Z,47.90
2018-07-02T09:31:05.860Z,47.20
2018-07-02T09:33:33.191Z,47.20
2018-07-02T09:36:00.582Z,46.50
2018-07-02T09:38:27.907Z,47.10
2018-07-02T09:40:55.236Z,46.90
2018-07-02T09:43:22.570Z,46.90
2018-07-02T09:45:49.909Z,46.20
2018-07-02T09:48:17.475Z,46.50
2018-07-02T09:50:44.563Z,46.70
2018-07-02T09:53:11.999Z,46.60
2018-07-02T09:55:39.291Z,46.60
2018-07-02T09:58:06.623Z,45.80
2018-07-02T10:00:33.961Z,46.30
2018-07-02T10:03:01.299Z,46.60
2018-07-02T10:05:28.709Z,46.60
2018-07-02T10:07:55.996Z,46.20
2018-07-02T10:10:23.386Z,46.10
2018-07-02T10:12:50.809Z,45.70
2018-07-02T10:15:18.292Z,45.70
2018-07-02T10:17:45.658Z,45.60
2018-07-02T10:20:13.017Z,45.70
2018-07-02T10:25:07.534Z,45.40
2018-07-02T10:27:34.868Z,46.00
2018-07-02T10:30:02.251Z,45.40
2018-07-02T10:32:29.680Z,45.30
2018-07-02T10:34:56.955Z,45.60
2018-07-02T10:37:24.282Z,45.60
2018-07-02T10:39:51.624Z,45.80
2018-07-02T10:42:18.924Z,45.40
2018-07-02T10:44:46.466Z,45.90
2018-07-02T10:47:13.821Z,45.90
2018-07-02T10:49:41.180Z,45.50
2018-07-02T10:52:08.518Z,45.20
2018-07-02T10:54:35.816Z,45.00
2018-07-02T10:57:03.239Z,44.80
2018-07-02T10:59:30.561Z,44.70
2018-07-02T11:01:57.882Z,44.60
2018-07-02T11:04:25.222Z,45.40
2018-07-02T11:06:52.562Z,45.30
2018-07-02T11:09:19.979Z,45.50
2018-07-02T11:14:14.500Z,44.40
2018-07-02T11:16:41.851Z,44.30
2018-07-02T11:19:09.559Z,44.30
2018-07-02T11:21:36.901Z,45.60
2018-07-02T11:24:04.418Z,45.20
2018-07-02T11:26:31.762Z,45.00
2018-07-02T11:28:59.062Z,45.30
2018-07-02T11:31:26.381Z,45.30
2018-07-02T11:33:53.683Z,44.90
2018-07-02T11:36:21.020Z,44.70
2018-07-02T11:38:48.341Z,44.50
2018-07-02T11:41:15.707Z,43.90
2018-07-02T11:43:43.284Z,43.70
2018-07-02T11:46:10.634Z,43.50
2018-07-02T11:48:37.987Z,44.10
2018-07-02T11:51:05.344Z,43.80
2018-07-02T11:53:32.687Z,44.40
2018-07-02T11:55:59.986Z,44.50
2018-07-02T11:58:27.652Z,44.50
2018-07-02T12:00:55.060Z,43.80
2018-07-02T12:03:23.184Z,44.70
2018-07-02T12:05:50.536Z,44.70
2018-07-02T12:08:17.863Z,44.30
2018-07-02T12:10:45.267Z,43.90
2018-07-02T12:13:12.687Z,44.40
2018-07-02T12:15:40.039Z,44.10
2018-07-02T12:18:07.376Z,43.30
2018-07-02T12:20:34.728Z,44.60
2018-07-02T12:23:02.040Z,44.40
2018-07-02T12:25:29.391Z,44.20
2018-07-02T12:27:56.729Z,44.80
2018-07-02T12:30:24.030Z,44.30
2018-07-02T12:32:51.356Z,44.20
2018-07-02T12:35:18.748Z,44.70
2018-07-02T12:37:46.094Z,44.50
2018-07-02T12:42:40.700Z,45.30
2018-07-02T12:45:08.020Z,44.60
2018-07-02T12:47:35.347Z,44.00
2018-07-02T12:50:02.713Z,43.90
2018-07-02T12:52:30.052Z,43.90
2018-07-02T12:54:57.362Z,44.60
2018-07-02T12:57:24.707Z,44.00
2018-07-02T12:59:52.079Z,43.40
2018-07-02T13:02:19.428Z,43.00
2018-07-02T13:04:46.739Z,42.70
2018-07-02T13:07:14.167Z,43.30
2018-07-02T13:09:41.488Z,43.70
2018-07-02T13:12:08.824Z,43.20
2018-07-02T13:14:36.143Z,42.90
2018-07-02T13:17:03.472Z,42.40
2018-07-02T13:19:31.024Z,43.10
2018-07-02T13:21:58.334Z,42.00
2018-07-02T13:24:26.083Z,42.60
2018-07-02T13:26:53.442Z,43.00
2018-07-02T13:29:20.706Z,43.20
2018-07-02T13:31:48.039Z,43.50
2018-07-02T13:34:15.375Z,43.50
2018-07-02T13:36:42.794Z,42.80
2018-07-02T13:39:10.122Z,42.50
2018-07-02T13:41:37.603Z,42.10
2018-07-02T13:44:04.871Z,41.50
2018-07-02T13:46:32.345Z,41.00
2018-07-02T13:48:59.642Z,41.20
2018-07-02T13:51:26.961Z,40.50
2018-07-02T13:53:54.254Z,40.70
2018-07-02T13:56:21.623Z,41.60
2018-07-02T13:58:48.951Z,41.20
2018-07-02T14:01:16.330Z,41.90
2018-07-02T14:06:10.868Z,42.00
2018-07-02T14:08:38.235Z,42.40
2018-07-02T14:11:05.555Z,42.40
2018-07-02T14:13:32.883Z,41.90
2018-07-02T14:16:00.208Z,42.20
2018-07-02T14:18:27.570Z,40.80
2018-07-02T14:20:54.927Z,41.20
2018-07-02T14:23:22.303Z,41.60
2018-07-02T14:25:49.649Z,41.50
2018-07-02T14:28:16.969Z,41.40
2018-07-02T14:30:44.358Z,41.30
2018-07-02T14:33:11.721Z,41.10
2018-07-02T14:35:39.046Z,39.60
2018-07-02T14:38:06.363Z,40.60
2018-07-02T14:40:33.748Z,40.20
2018-07-02T14:43:01.094Z,41.50
2018-07-02T14:45:28.570Z,41.60
2018-07-02T14:47:55.774Z,41.60
2018-07-02T14:50:23.087Z,41.20
2018-07-02T14:52:50.406Z,41.30
2018-07-02T14:55:17.757Z,41.30
2018-07-02T14:57:45.093Z,40.90
2018-07-02T15:00:12.465Z,41.00
2018-07-02T15:02:39.760Z,40.50
2018-07-02T15:05:07.106Z,40.40
2018-07-02T15:07:34.427Z,39.20
2018-07-02T15:10:01.844Z,39.80
2018-07-02T15:12:29.167Z,40.40
2018-07-02T15:14:56.495Z,40.30
2018-07-02T15:17:23.847Z,40.00
2018-07-02T15:19:51.182Z,39.50
2018-07-02T15:22:18.482Z,40.30
2018-07-02T15:24:45.862Z,39.90
2018-07-02T15:27:13.195Z,40.20
2018-07-02T15:29:40.529Z,39.70
2018-07-02T15:32:07.895Z,40.10
2018-07-02T15:34:35.178Z,39.90
2018-07-02T15:37:02.630Z,39.10
2018-07-02T15:39:29.978Z,39.30
2018-07-02T15:41:57.286Z,40.10
2018-07-02T15:44:24.618Z,40.00
2018-07-02T15:46:51.988Z,39.90
2018-07-02T15:49:19.287Z,40.30
2018-07-02T15:51:46.768Z,40.30
2018-07-02T15:54:14.525Z,40.20
2018-07-02T15:56:41.900Z,39.70
2018-07-02T15:59:09.233Z,39.50
2018-07-02T16:01:36.622Z,39.20
2018-07-02T16:04:03.972Z,39.90
2018-07-02T16:06:31.308Z,39.10
2018-07-02T16:08:59.588Z,39.50
2018-07-02T16:11:27.114Z,40.20
2018-07-02T16:13:54.471Z,39.10
2018-07-02T16:16:21.810Z,39.60
2018-07-02T16:18:49.147Z,39.80
2018-07-02T16:21:16.450Z,39.50
2018-07-02T16:23:43.817Z,39.70
2018-07-02T16:26:11.178Z,39.00
2018-07-02T16:28:38.534Z,38.90
2018-07-02T16:31:05.867Z,37.90
2018-07-02T16:33:33.188Z,38.20
2018-07-02T16:36:00.494Z,37.90
2018-07-02T16:38:27.842Z,37.20
2018-07-02T16:40:55.224Z,36.10
2018-07-02T16:43:22.560Z,35.50
2018-07-02T16:45:49.898Z,34.90
2018-07-02T16:48:17.240Z,34.20
2018-07-02T16:50:44.707Z,33.80
2018-07-02T16:53:12.085Z,34.10
2018-07-02T16:55:39.395Z,33.60
2018-07-02T16:58:06.722Z,33.70
2018-07-02T17:00:34.096Z,33.40
2018-07-02T17:03:01.566Z,32.00
2018-07-02T17:05:28.868Z,31.70
2018-07-02T17:07:56.305Z,32.10
2018-07-02T17:10:23.612Z,32.50
2018-07-02T17:12:51.039Z,32.80
2018-07-02T17:15:18.388Z,33.50
2018-07-02T17:17:45.760Z,33.50
2018-07-02T17:20:13.131Z,33.90
2018-07-02T17:22:40.836Z,33.20
2018-07-02T17:25:08.346Z,32.80
2018-07-02T17:27:35.702Z,32.20
2018-07-02T17:30:03.022Z,32.10
2018-07-02T17:34:57.580Z,32.10
2018-07-02T17:37:24.915Z,32.10
2018-07-02T17:39:52.263Z,32.20
2018-07-02T17:42:19.598Z,32.40
2018-07-02T17:44:46.927Z,32.60
2018-07-02T17:47:14.270Z,32.50
2018-07-02T17:49:41.625Z,32.30
2018-07-02T17:52:09.283Z,32.20
2018-07-02T17:54:36.731Z,32.20
2018-07-02T17:57:04.156Z,32.70
2018-07-02T17:59:31.489Z,32.00
2018-07-02T18:01:58.890Z,32.20
2018-07-02T18:04:26.262Z,32.30
2018-07-02T18:06:53.596Z,32.40
2018-07-02T18:09:20.918Z,32.70
2018-07-02T18:11:48.289Z,33.40
2018-07-02T18:14:15.615Z,34.20
2018-07-02T18:16:43.043Z,35.10
2018-07-02T18:19:10.446Z,35.80
2018-07-02T18:21:37.881Z,36.70
2018-07-02T18:24:05.258Z,37.40
2018-07-02T18:26:32.692Z,37.80
2018-07-02T18:29:00.075Z,38.70
2018-07-02T18:33:54.679Z,39.90
2018-07-02T18:36:22.006Z,40.00
2018-07-02T18:38:49.459Z,39.90
2018-07-02T18:41:16.930Z,40.40
2018-07-02T18:46:11.534Z,41.00
2018-07-02T18:48:38.944Z,41.10
2018-07-02T18:51:06.341Z,41.50
2018-07-02T18:53:34.092Z,41.60
2018-07-02T18:58:28.848Z,42.20
2018-07-02T19:00:56.167Z,41.80
2018-07-02T19:03:23.506Z,42.30
2018-07-02T19:05:50.839Z,42.00
2018-07-02T19:08:18.189Z,42.10
2018-07-02T19:10:45.580Z,42.60
2018-07-02T19:13:12.914Z,42.70
2018-07-02T19:15:40.239Z,42.80
2018-07-02T19:18:07.575Z,43.20
2018-07-02T19:20:34.910Z,43.50
2018-07-02T19:23:02.220Z,43.50
2018-07-02T19:25:29.535Z,43.70
2018-07-02T19:27:57.014Z,44.10
2018-07-02T19:30:24.346Z,44.40
2018-07-02T19:32:51.694Z,44.40
2018-07-02T19:35:19.147Z,44.40
2018-07-02T19:37:46.483Z,44.80
2018-07-02T19:40:13.859Z,45.20
2018-07-02T19:42:41.164Z,45.30
2018-07-02T19:45:08.536Z,45.40
2018-07-02T19:47:35.855Z,45.60
2018-07-02T19:50:03.492Z,45.60
2018-07-02T19:52:30.814Z,45.60
2018-07-02T19:54:58.160Z,46.00
2018-07-02T19:57:25.458Z,46.30
2018-07-02T19:59:52.789Z,46.30
2018-07-02T20:02:20.107Z,46.40
2018-07-02T20:04:47.431Z,46.00
2018-07-02T20:07:14.795Z,46.40
2018-07-02T20:09:42.130Z,46.60
2018-07-02T20:12:09.594Z,46.50
2018-07-02T20:14:36.940Z,46.60
2018-07-02T20:17:04.459Z,46.50
2018-07-02T20:19:32.536Z,46.70
2018-07-02T20:21:59.862Z,46.50
2018-07-02T20:24:27.179Z,46.50
2018-07-02T20:26:54.540Z,46.30
2018-07-02T20:29:21.864Z,46.20
2018-07-02T20:31:49.322Z,46.30
2018-07-02T20:34:16.640Z,46.30
2018-07-02T20:36:43.991Z,46.30
2018-07-02T20:39:11.464Z,46.30
2018-07-02T20:41:38.912Z,46.50
2018-07-02T20:44:06.234Z,46.40
2018-07-02T20:46:33.596Z,46.20
2018-07-02T20:49:00.916Z,46.20
2018-07-02T20:51:28.291Z,46.30
2018-07-02T20:53:55.663Z,46.10
2018-07-02T20:56:22.981Z,46.20
2018-07-02T20:58:50.275Z,50.80
2018-07-02T21:01:17.650Z,46.50
2018-07-02T21:03:45.016Z,46.50
2018-07-02T21:06:12.411Z,46.80
2018-07-02T21:08:39.767Z,46.60
2018-07-02T21:11:07.098Z,46.70
2018-07-02T21:13:34.415Z,46.40
2018-07-02T21:16:01.764Z,46.40
2018-07-02T21:18:29.066Z,46.30
2018-07-02T21:20:56.419Z,46.30
2018-07-02T21:23:23.790Z,46.50
2018-07-02T21:25:51.112Z,46.50
2018-07-02T21:28:18.744Z,46.60
2018-07-02T21:30:46.074Z,46.70
2018-07-02T21:33:13.417Z,46.70
2018-07-02T21:35:40.853Z,47.00
2018-07-02T21:38:08.151Z,47.20
2018-07-02T21:40:35.440Z,47.10
2018-07-02T21:43:02.836Z,47.20
2018-07-02T21:45:30.141Z,47.20
2018-07-02T21:47:57.550Z,47.60
2018-07-02T21:50:24.982Z,47.70
2018-07-02T21:52:52.306Z,47.60
2018-07-02T21:55:19.622Z,47.40
2018-07-02T21:57:46.934Z,47.80
2018-07-02T22:00:14.270Z,47.80
2018-07-02T22:02:41.755Z,47.70
2018-07-02T22:05:09.067Z,47.40
2018-07-02T22:07:36.386Z,47.40
2018-07-02T22:10:04.209Z,47.80
2018-07-02T22:14:58.819Z,47.80
2018-07-02T22:17:26.162Z,47.90
2018-07-02T22:19:53.507Z,47.70
2018-07-02T22:22:20.880Z,47.60
2018-07-02T22:24:48.178Z,47.70
2018-07-02T22:27:15.495Z,47.90
2018-07-02T22:29:42.928Z,47.80
2018-07-02T22:32:10.303Z,47.70
2018-07-02T22:34:37.640Z,47.80
2018-07-02T22:37:05.506Z,47.90
2018-07-02T22:39:32.858Z,47.90
2018-07-02T22:42:00.150Z,47.60
2018-07-02T22:44:27.451Z,47.60
2018-07-02T22:46:54.803Z,47.70
2018-07-02T22:49:22.193Z,47.60
2018-07-02T22:51:49.542Z,47.60
2018-07-02T22:54:16.853Z,47.70
2018-07-02T22:56:44.222Z,47.60
2018-07-02T22:59:11.592Z,47.70
2018-07-02T23:01:38.922Z,47.60
2018-07-02T23:04:06.219Z,47.40
2018-07-02T23:06:33.535Z,47.90
2018-07-02T23:09:00.866Z,47.80
2018-07-02T23:13:55.386Z,47.90
2018-07-02T23:16:22.719Z,47.80
2018-07-02T23:18:50.022Z,47.50
2018-07-02T23:21:17.337Z,47.60
2018-07-02T23:23:44.658Z,47.60
2018-07-02T23:26:11.988Z,47.60
2018-07-02T23:28:39.332Z,47.50
2018-07-02T23:31:06.676Z,47.40
2018-07-02T23:33:34.025Z,47.30
2018-07-02T23:36:01.355Z,47.40
2018-07-02T23:38:28.719Z,47.20
2018-07-02T23:40:55.989Z,47.40
2018-07-02T23:43:24.409Z,47.20
2018-07-02T23:45:51.750Z,47.20
2018-07-02T23:48:19.043Z,47.10
2018-07-02T23:50:46.362Z,46.90
2018-07-02T23:53:13.680Z,47.20
2018-07-02T23:55:41.016Z,47.00
2018-07-02T23:58:08.350Z,47.00
